createdAt,value
2018-10-17T00:01:11.134Z,47.83
2018-10-17T00:03:40.718Z,47.85
2018-10-17T00:06:49.823Z,48.73
2018-10-17T00:09:40.723Z,54.75
2018-10-17T00:16:12.189Z,48.90
2018-10-17T00:18:41.472Z,50.00
2018-10-17T00:21:34.271Z,45.90
2018-10-17T00:24:11.303Z,53.23
2018-10-17T00:26:48.243Z,46.60
2018-10-17T00:29:42.713Z,60.43
2018-10-17T00:32:12.225Z,46.58
2018-10-17T00:34:53.832Z,44.20
2018-10-17T00:37:46.253Z,41.55
2018-10-17T00:40:27.717Z,41.83
2018-10-17T00:43:26.913Z,38.15
2018-10-17T00:46:03.973Z,43.85
2018-10-17T00:48:58.194Z,50.50
2018-10-17T00:51:36.766Z,54.53
2018-10-17T00:54:22.162Z,60.08
2018-10-17T00:56:51.976Z,48.10
2018-10-17T00:59:45.984Z,49.50
2018-10-17T01:02:43.532Z,49.38
2018-10-17T01:06:00.232Z,43.48
2018-10-17T01:08:29.672Z,49.50
2018-10-17T01:11:15.397Z,64.25
2018-10-17T01:13:45.858Z,51.33
2018-10-17T01:16:31.466Z,53.60
2018-10-17T01:19:27.972Z,67.58
2018-10-17T01:22:25.626Z,46.58
2018-10-17T01:25:18.942Z,43.58
2018-10-17T01:27:57.158Z,40.92
2018-10-17T01:30:40.326Z,36.83
2018-10-17T01:33:11.159Z,49.13
2018-10-17T01:35:55.812Z,51.88
2018-10-17T01:38:26.736Z,70.15
2018-10-17T01:41:20.226Z,69.97
2018-10-17T01:43:50.565Z,52.58
2018-10-17T01:46:35.178Z,48.90
2018-10-17T01:49:28.400Z,38.13
2018-10-17T01:52:14.578Z,48.33
2018-10-17T01:54:43.904Z,42.53
2018-10-17T01:57:13.145Z,60.80
2018-10-17T02:00:09.077Z,45.55
2018-10-17T02:03:02.000Z,51.68
2018-10-17T02:05:45.756Z,39.83
2018-10-17T02:08:38.360Z,39.00
2018-10-17T02:11:28.486Z,30.80
2018-10-17T02:14:21.816Z,33.35
2018-10-17T02:17:13.621Z,32.10
2018-10-17T02:19:43.567Z,42.62
2018-10-17T02:22:20.416Z,39.38
2018-10-17T02:25:05.305Z,46.20
2018-10-17T02:27:41.683Z,58.17
2018-10-17T02:30:12.038Z,46.77
2018-10-17T02:33:09.021Z,36.80
2018-10-17T02:37:14.780Z,40.23
2018-10-17T02:39:44.226Z,35.17
2018-10-17T02:42:22.864Z,38.05
2018-10-17T02:45:05.159Z,42.15
2018-10-17T02:47:34.409Z,37.80
2018-10-17T02:50:11.924Z,38.25
2018-10-17T02:52:50.346Z,49.80
2018-10-17T02:55:27.238Z,36.00
2018-10-17T02:58:20.086Z,38.23
2018-10-17T03:01:20.248Z,38.48
2018-10-17T03:04:04.860Z,38.00
2018-10-17T03:06:52.870Z,37.20
2018-10-17T03:09:46.861Z,38.13
2018-10-17T03:12:32.486Z,42.17
2018-10-17T03:15:28.773Z,41.18
2018-10-17T03:18:28.740Z,37.73
2018-10-17T03:20:58.486Z,38.53
2018-10-17T03:23:43.298Z,35.17
2018-10-17T03:26:12.621Z,35.33
2018-10-17T03:28:42.757Z,36.38
2018-10-17T03:31:14.292Z,37.80
2018-10-17T03:37:17.880Z,44.70
2018-10-17T03:39:47.616Z,49.75
2018-10-17T03:42:39.576Z,41.23
2018-10-17T03:45:08.837Z,37.38
2018-10-17T03:47:46.700Z,33.25
2018-10-17T03:50:17.103Z,35.33
2018-10-17T03:52:53.865Z,34.18
2018-10-17T03:55:43.507Z,43.63
2018-10-17T03:58:13.006Z,37.17
2018-10-17T04:00:43.626Z,47.00
2018-10-17T04:03:13.354Z,43.40
2018-10-17T04:05:42.840Z,37.63
2018-10-17T04:08:24.826Z,38.02
2018-10-17T04:11:05.637Z,39.88
2018-10-17T04:13:51.279Z,28.62
2018-10-17T04:16:53.849Z,31.85
2018-10-17T04:19:51.706Z,34.00
2018-10-17T04:22:58.039Z,29.00
2018-10-17T04:26:12.044Z,30.20
2018-10-17T04:28:59.212Z,34.08
2018-10-17T04:31:28.734Z,35.52
2018-10-17T04:33:58.320Z,31.05
2018-10-17T04:36:28.647Z,33.18
2018-10-17T04:38:57.963Z,32.95
2018-10-17T04:41:41.745Z,38.73
2018-10-17T04:44:13.451Z,44.60
2018-10-17T04:46:43.445Z,36.48
2018-10-17T04:49:24.076Z,40.33
2018-10-17T04:51:53.486Z,39.03
2018-10-17T04:54:32.323Z,34.40
2018-10-17T04:57:29.809Z,42.27
2018-10-17T05:00:01.401Z,35.63
2018-10-17T05:02:43.952Z,32.73
2018-10-17T05:05:21.819Z,35.83
2018-10-17T05:07:58.657Z,31.23
2018-10-17T05:10:48.609Z,32.05
2018-10-17T05:13:20.154Z,50.17
2018-10-17T05:15:49.613Z,36.65
2018-10-17T05:18:19.485Z,32.70
2018-10-17T05:20:50.532Z,26.95
2018-10-17T05:23:28.445Z,28.00
2018-10-17T05:26:36.599Z,26.05
2018-10-17T05:29:30.849Z,31.95
2018-10-17T05:32:21.637Z,23.87
2018-10-17T05:35:00.976Z,31.50
2018-10-17T05:37:50.890Z,30.30
2018-10-17T05:40:36.046Z,29.52
2018-10-17T05:43:05.367Z,35.17
2018-10-17T05:46:05.234Z,31.07
2018-10-17T05:48:50.724Z,28.52
2018-10-17T05:51:23.834Z,26.55
2018-10-17T05:54:21.993Z,32.15
2018-10-17T05:57:04.752Z,28.45
2018-10-17T05:59:34.357Z,27.30
2018-10-17T06:02:17.109Z,38.48
2018-10-17T06:05:23.822Z,38.40
2018-10-17T06:07:55.994Z,31.07
2018-10-17T06:10:40.309Z,30.88
2018-10-17T06:13:11.417Z,28.83
2018-10-17T06:15:47.686Z,33.63
2018-10-17T06:18:17.041Z,35.55
2018-10-17T06:20:49.594Z,32.28
2018-10-17T06:23:34.255Z,34.67
2018-10-17T06:26:03.694Z,33.23
2018-10-17T06:28:32.962Z,32.05
2018-10-17T06:31:25.255Z,31.00
2018-10-17T06:34:17.481Z,30.80
2018-10-17T06:37:08.154Z,30.60
2018-10-17T06:39:37.450Z,35.90
2018-10-17T06:42:34.842Z,43.33
2018-10-17T06:45:12.130Z,32.53
2018-10-17T06:47:49.014Z,33.02
2018-10-17T06:50:19.035Z,33.05
2018-10-17T06:53:11.898Z,34.43
2018-10-17T06:55:48.046Z,29.83
2018-10-17T06:59:03.687Z,33.13
2018-10-17T07:02:14.610Z,32.00
2018-10-17T07:04:44.044Z,27.50
2018-10-17T07:07:13.441Z,29.43
2018-10-17T07:10:04.483Z,36.90
2018-10-17T07:12:33.918Z,34.13
2018-10-17T07:15:11.323Z,30.23
2018-10-17T07:17:55.899Z,34.33
2018-10-17T07:20:25.202Z,30.20
2018-10-17T07:22:54.574Z,34.43
2018-10-17T07:25:23.885Z,26.13
2018-10-17T07:27:54.155Z,23.90
2018-10-17T07:30:23.551Z,33.53
2018-10-17T07:32:52.828Z,30.10
2018-10-17T07:35:22.220Z,47.13
2018-10-17T07:37:51.599Z,40.70
2018-10-17T07:40:21.581Z,24.67
2018-10-17T07:42:58.977Z,27.30
2018-10-17T07:45:28.354Z,30.97
2018-10-17T07:51:37.744Z,32.80
2018-10-17T07:54:35.763Z,35.63
2018-10-17T07:57:20.395Z,39.23
2018-10-17T08:00:05.508Z,25.67
2018-10-17T08:02:49.414Z,39.93
2018-10-17T08:05:18.643Z,36.80
2018-10-17T08:07:55.618Z,29.37
2018-10-17T08:10:29.968Z,30.73
2018-10-17T08:13:00.166Z,25.33
2018-10-17T08:15:36.997Z,35.83
2018-10-17T08:18:14.280Z,32.83
2018-10-17T08:20:46.883Z,42.63
2018-10-17T08:23:24.321Z,27.47
2018-10-17T08:26:16.172Z,36.67
2018-10-17T08:33:00.952Z,30.83
2018-10-17T08:35:59.670Z,37.10
2018-10-17T09:58:00.034Z,35.20
2018-10-17T10:07:24.839Z,32.57
2018-10-17T10:44:06.233Z,28.23
2018-10-17T10:46:43.953Z,24.37
2018-10-17T11:15:17.706Z,18.43
2018-10-17T11:17:46.973Z,19.03
2018-10-17T11:20:16.221Z,22.57
2018-10-17T11:26:41.492Z,16.50
2018-10-17T11:33:06.223Z,21.47
2018-10-17T11:36:14.921Z,21.70
2018-10-17T11:39:05.695Z,21.70
2018-10-17T11:41:47.546Z,22.40
2018-10-17T11:44:50.244Z,17.00
2018-10-17T11:48:06.095Z,24.93
2018-10-17T11:50:36.170Z,19.80
2018-10-17T11:53:13.683Z,25.40
2018-10-17T11:55:51.264Z,20.23
2018-10-17T11:58:38.599Z,24.50
2018-10-17T12:01:22.564Z,19.27
2018-10-17T12:03:52.978Z,14.97
2018-10-17T12:06:23.476Z,15.60
2018-10-17T12:09:01.305Z,17.23
2018-10-17T12:11:51.939Z,20.27
2018-10-17T12:14:21.196Z,20.67
2018-10-17T12:19:59.596Z,14.23
2018-10-17T12:22:45.298Z,20.73
2018-10-17T12:26:00.274Z,20.97
2018-10-17T12:32:13.425Z,21.90
2018-10-17T12:34:44.168Z,15.73
2018-10-17T12:37:13.760Z,13.60
2018-10-17T12:40:22.695Z,14.53
2018-10-17T12:42:51.894Z,12.63
2018-10-17T12:45:21.233Z,25.67
2018-10-17T12:51:37.716Z,15.87
2018-10-17T12:57:52.154Z,17.10
2018-10-17T13:00:21.384Z,18.00
2018-10-17T13:02:50.945Z,14.53
2018-10-17T13:05:34.272Z,24.40
2018-10-17T13:08:17.210Z,19.70
2018-10-17T13:14:41.554Z,25.07
2018-10-17T13:17:12.019Z,16.60
2018-10-17T13:23:24.398Z,24.03
2018-10-17T13:25:53.779Z,26.47
2018-10-17T13:28:24.497Z,14.80
2018-10-17T13:30:54.100Z,18.23
2018-10-17T13:33:23.320Z,15.17
2018-10-17T13:35:52.738Z,17.90
2018-10-17T13:38:22.082Z,21.33
2018-10-17T13:40:51.781Z,20.90
2018-10-17T13:43:21.070Z,13.53
2018-10-17T13:45:50.297Z,13.37
2018-10-17T13:48:54.323Z,17.40
2018-10-17T13:51:24.264Z,15.00
2018-10-17T13:53:55.420Z,16.63
2018-10-17T13:56:25.610Z,17.40
2018-10-17T13:58:56.232Z,11.90
2018-10-17T14:01:25.902Z,16.37
2018-10-17T14:03:55.830Z,12.67
2018-10-17T14:06:25.882Z,15.50
2018-10-17T14:08:55.242Z,16.40
2018-10-17T14:11:25.734Z,16.20
2018-10-17T14:13:55.276Z,16.10
2018-10-17T14:16:24.756Z,15.07
2018-10-17T14:18:54.719Z,18.83
2018-10-17T14:21:24.302Z,18.57
2018-10-17T14:23:54.000Z,12.03
2018-10-17T14:26:23.356Z,16.07
2018-10-17T14:29:19.660Z,13.90
2018-10-17T14:31:48.997Z,11.47
2018-10-17T14:34:18.271Z,16.70
2018-10-17T14:36:47.701Z,28.23
2018-10-17T14:39:17.112Z,12.93
2018-10-17T14:41:46.381Z,21.00
2018-10-17T14:44:15.722Z,15.70
2018-10-17T14:46:45.036Z,21.90
2018-10-17T14:49:15.946Z,14.63
2018-10-17T14:51:45.570Z,15.87
2018-10-17T14:54:15.996Z,14.90
2018-10-17T14:56:45.243Z,15.73
2018-10-17T14:59:15.780Z,12.60
2018-10-17T15:01:45.658Z,12.20
2018-10-17T15:04:16.439Z,13.67
2018-10-17T15:06:45.857Z,19.20
2018-10-17T15:09:15.177Z,14.33
2018-10-17T15:11:44.548Z,11.40
2018-10-17T15:14:14.282Z,13.90
2018-10-17T15:16:43.927Z,13.73
2018-10-17T15:19:13.674Z,12.27
2018-10-17T15:21:43.150Z,16.37
2018-10-17T15:24:13.662Z,10.97
2018-10-17T15:26:42.871Z,13.63
2018-10-17T15:29:12.788Z,11.10
2018-10-17T15:31:42.538Z,15.53
2018-10-17T15:34:13.275Z,12.63
2018-10-17T15:36:42.608Z,14.10
2018-10-17T15:39:13.059Z,12.20
2018-10-17T15:41:42.401Z,15.23
2018-10-17T15:44:11.859Z,14.80
2018-10-17T15:46:41.490Z,13.27
2018-10-17T15:49:11.323Z,15.37
2018-10-17T15:51:40.987Z,15.53
2018-10-17T15:54:10.943Z,13.03
2018-10-17T15:56:41.625Z,13.73
2018-10-17T15:59:10.947Z,15.67
2018-10-17T16:01:40.991Z,13.43
2018-10-17T16:04:10.485Z,14.20
2018-10-17T16:06:39.758Z,13.37
2018-10-17T16:09:12.093Z,10.27
2018-10-17T16:11:41.536Z,8.67
2018-10-17T16:14:11.544Z,12.40
2018-10-17T16:16:40.675Z,12.10
2018-10-17T16:19:10.459Z,12.10
2018-10-17T16:21:39.985Z,11.40
2018-10-17T16:24:09.329Z,12.73
2018-10-17T16:26:39.343Z,9.27
2018-10-17T16:29:08.808Z,10.37
2018-10-17T16:31:38.162Z,11.53
2018-10-17T16:34:07.509Z,11.30
2018-10-17T16:36:36.907Z,11.53
2018-10-17T16:39:18.951Z,14.73
2018-10-17T16:41:48.222Z,12.60
2018-10-17T16:44:17.666Z,9.40
2018-10-17T16:46:47.605Z,11.67
2018-10-17T16:49:17.079Z,10.77
2018-10-17T16:51:48.152Z,12.80
2018-10-17T16:54:19.514Z,10.30
2018-10-17T16:56:49.504Z,15.13
2018-10-17T16:59:19.597Z,11.73
2018-10-17T17:01:48.841Z,17.50
2018-10-17T17:04:19.119Z,14.67
2018-10-17T17:06:48.602Z,11.53
2018-10-17T17:09:18.580Z,11.50
2018-10-17T17:11:47.842Z,11.43
2018-10-17T17:14:17.598Z,10.57
2018-10-17T17:17:03.601Z,18.40
2018-10-17T17:19:33.182Z,15.93
2018-10-17T17:22:02.495Z,12.33
2018-10-17T17:24:31.773Z,13.97
2018-10-17T17:27:02.312Z,16.47
2018-10-17T17:29:32.430Z,14.20
2018-10-17T17:32:01.956Z,14.73
2018-10-17T17:34:31.403Z,14.77
2018-10-17T17:37:00.651Z,15.60
2018-10-17T17:39:30.463Z,13.73
2018-10-17T17:42:00.683Z,16.10
2018-10-17T17:44:30.364Z,17.67
2018-10-17T17:47:01.014Z,13.90
2018-10-17T17:49:30.310Z,21.43
2018-10-17T17:51:59.739Z,16.23
2018-10-17T17:54:29.451Z,14.77
2018-10-17T17:56:58.806Z,12.07
2018-10-17T17:59:28.571Z,17.70
2018-10-17T18:01:58.561Z,16.20
2018-10-17T18:04:27.993Z,25.07
2018-10-17T18:06:58.982Z,16.93
2018-10-17T18:09:28.389Z,17.40
2018-10-17T18:11:58.203Z,34.33
2018-10-17T18:14:28.485Z,12.60
2018-10-17T18:16:57.726Z,18.47
2018-10-17T18:19:27.498Z,15.63
2018-10-17T18:21:57.463Z,18.20
2018-10-17T18:24:26.686Z,17.77
2018-10-17T18:26:58.087Z,16.63
2018-10-17T18:29:34.395Z,32.20
2018-10-17T18:32:05.768Z,12.93
2018-10-17T18:34:36.949Z,15.80
2018-10-17T18:37:08.526Z,23.13
2018-10-17T18:39:39.378Z,16.50
2018-10-17T18:42:09.431Z,18.47
2018-10-17T18:44:39.845Z,21.00
2018-10-17T18:47:10.123Z,16.60
2018-10-17T18:49:39.445Z,21.20
2018-10-17T18:52:08.689Z,21.50
2018-10-17T18:54:39.741Z,20.10
2018-10-17T18:57:09.238Z,30.97
2018-10-17T18:59:42.324Z,16.63
2018-10-17T19:02:12.595Z,16.27
2018-10-17T19:04:42.151Z,24.80
2018-10-17T19:07:17.139Z,19.93
2018-10-17T19:09:47.685Z,22.97
2018-10-17T19:12:18.182Z,23.70
2018-10-17T19:14:48.842Z,25.43
2018-10-17T19:17:18.401Z,21.20
2018-10-17T19:19:49.931Z,23.33
2018-10-17T19:22:19.710Z,17.77
2018-10-17T19:24:49.432Z,25.90
2018-10-17T19:27:18.695Z,24.30
2018-10-17T19:29:48.121Z,22.03
2018-10-17T19:32:17.421Z,14.50
2018-10-17T19:34:47.439Z,20.50
2018-10-17T19:37:16.669Z,16.57
2018-10-17T19:39:46.823Z,17.73
2018-10-17T19:42:15.981Z,23.23
2018-10-17T19:44:45.274Z,21.57
2018-10-17T19:47:14.610Z,26.73
2018-10-17T19:49:44.436Z,25.27
2018-10-17T19:52:13.681Z,24.03
2018-10-17T19:54:43.002Z,28.13
2018-10-17T19:57:12.313Z,25.00
2018-10-17T19:59:41.535Z,23.20
2018-10-17T20:02:10.894Z,21.23
2018-10-17T20:04:40.063Z,16.67
2018-10-17T20:07:09.249Z,18.70
2018-10-17T20:09:38.434Z,17.07
2018-10-17T20:12:07.988Z,24.23
2018-10-17T20:14:37.584Z,21.43
2018-10-17T20:17:07.878Z,20.50
2018-10-17T20:19:37.166Z,18.33
2018-10-17T20:22:08.826Z,21.93
2018-10-17T20:24:38.021Z,24.57
2018-10-17T20:27:08.303Z,20.00
2018-10-17T20:29:38.484Z,17.90
2018-10-17T20:32:08.674Z,18.93
2018-10-17T20:34:38.380Z,19.67
2018-10-17T20:37:07.920Z,31.17
2018-10-17T20:39:37.544Z,19.97
2018-10-17T20:42:09.112Z,17.73
2018-10-17T20:44:40.821Z,29.00
2018-10-17T20:47:12.514Z,22.70
2018-10-17T20:49:42.401Z,22.37
2018-10-17T20:52:12.056Z,23.00
2018-10-17T20:54:41.342Z,21.43
2018-10-17T20:57:10.827Z,28.60
2018-10-17T20:59:40.979Z,22.13
2018-10-17T21:02:11.070Z,25.50
2018-10-17T21:04:42.316Z,39.23
2018-10-17T21:07:13.463Z,23.77
2018-10-17T21:09:43.559Z,25.87
2018-10-17T21:12:13.304Z,16.90
2018-10-17T21:14:43.514Z,20.13
2018-10-17T21:17:12.935Z,21.40
2018-10-17T21:19:42.209Z,35.07
2018-10-17T21:22:15.722Z,25.30
2018-10-17T21:24:46.139Z,23.80
2018-10-17T21:27:15.931Z,25.47
2018-10-17T21:29:45.441Z,30.27
2018-10-17T21:32:15.084Z,29.57
2018-10-17T21:34:45.354Z,25.00
2018-10-17T21:37:15.566Z,21.27
2018-10-17T21:39:47.392Z,23.20
2018-10-17T21:42:18.616Z,28.93
2018-10-17T21:44:49.125Z,23.63
2018-10-17T21:47:20.935Z,22.83
2018-10-17T21:49:52.305Z,38.90
2018-10-17T21:52:23.413Z,29.37
2018-10-17T21:56:22.515Z,27.47
2018-10-17T21:58:51.885Z,26.80
2018-10-17T22:01:22.153Z,30.87
2018-10-17T22:03:51.502Z,25.52
2018-10-17T22:06:22.092Z,21.90
2018-10-17T22:08:51.312Z,36.55
2018-10-17T22:11:21.070Z,34.95
2018-10-17T22:13:52.131Z,29.17
2018-10-17T22:16:25.049Z,23.15
2018-10-17T22:18:57.114Z,34.50
2018-10-17T22:21:27.208Z,29.10
2018-10-17T22:23:56.533Z,30.20
2018-10-17T22:26:26.392Z,31.03
2018-10-17T22:28:56.877Z,29.53
2018-10-17T22:31:27.716Z,23.20
2018-10-17T22:33:58.120Z,30.87
2018-10-17T22:36:28.774Z,37.40
2018-10-17T22:39:02.288Z,24.37
2018-10-17T22:41:31.571Z,39.70
2018-10-17T22:44:03.716Z,30.90
2018-10-17T22:46:33.651Z,31.23
2018-10-17T22:49:04.158Z,31.63
2018-10-17T22:51:34.012Z,31.13
2018-10-17T22:54:05.361Z,29.13
2018-10-17T22:56:40.143Z,30.30
2018-10-17T22:59:11.955Z,34.37
2018-10-17T23:01:49.217Z,32.30
2018-10-17T23:04:18.990Z,38.77
2018-10-17T23:06:52.803Z,33.67
2018-10-17T23:09:24.695Z,34.87
2018-10-17T23:11:55.927Z,33.97
2018-10-17T23:14:25.243Z,49.73
2018-10-17T23:16:56.602Z,35.50
2018-10-17T23:19:25.971Z,33.53
2018-10-17T23:21:55.323Z,38.43
2018-10-17T23:24:28.291Z,35.00
2018-10-17T23:26:58.260Z,41.85
2018-10-17T23:29:33.031Z,61.67
2018-10-17T23:32:02.453Z,35.87
2018-10-17T23:34:32.110Z,32.03
2018-10-17T23:37:01.773Z,31.45
2018-10-17T23:39:34.800Z,31.27
2018-10-17T23:42:04.569Z,37.13
2018-10-17T23:44:37.525Z,31.30
2018-10-17T23:47:07.325Z,27.32
2018-10-17T23:49:38.491Z,28.98
2018-10-17T23:52:08.767Z,27.40
2018-10-17T23:54:39.553Z,31.00
2018-10-17T23:57:09.663Z,30.88
2018-10-17T23:59:39.355Z,32.33
